sensor_id;sensor_type;location;lat;lon;timestamp;P1;durP1;ratioP1;P2;durP2;ratioP2
64851;SDS011;56050;55.558;-4.644;2023-04-28T00:00:25;25.55;;;9.27;;
64851;SDS011;56050;55.558;-4.644;2023-04-28T00:02:51;23.73;;;9.30;;
64851;SDS011;56050;55.558;-4.644;2023-04-28T00:05:16;20.50;;;8.55;;
64851;SDS011;56050;55.558;-4.644;2023-04-28T00:07:42;22.30;;;10.63;;
64851;SDS011;56050;55.558;-4.644;2023-04-28T00:10:08;23.05;;;10.85;;
64851;SDS011;56050;55.558;-4.644;2023-04-28T00:12:33;22.95;;;9.02;;
64851;SDS011;56050;55.558;-4.644;2023-04-28T00:14:59;20.02;;;10.00;;
64851;SDS011;56050;55.558;-4.644;2023-04-28T00:17:24;21.92;;;9.48;;
64851;SDS011;56050;55.558;-4.644;2023-04-28T00:19:50;20.55;;;9.73;;
64851;SDS011;56050;55.558;-4.644;2023-04-28T00:22:16;23.08;;;9.77;;
64851;SDS011;56050;55.558;-4.644;2023-04-28T00:24:42;20.67;;;8.63;;
64851;SDS011;56050;55.558;-4.644;2023-04-28T00:27:08;25.45;;;9.48;;
64851;SDS011;56050;55.558;-4.644;2023-04-28T00:29:33;24.70;;;9.10;;
64851;SDS011;56050;55.558;-4.644;2023-04-28T00:31:59;22.13;;;9.23;;
64851;SDS011;56050;55.558;-4.644;2023-04-28T00:34:24;24.17;;;9.95;;
64851;SDS011;56050;55.558;-4.644;2023-04-28T00:36:50;19.20;;;8.20;;
64851;SDS011;56050;55.558;-4.644;2023-04-28T00:39:15;21.05;;;9.38;;
64851;SDS011;56050;55.558;-4.644;2023-04-28T00:41:42;19.33;;;8.98;;
64851;SDS011;56050;55.558;-4.644;2023-04-28T00:44:07;22.73;;;8.85;;
64851;SDS011;56050;55.558;-4.644;2023-04-28T00:46:34;22.13;;;11.45;;
64851;SDS011;56050;55.558;-4.644;2023-04-28T00:48:59;21.23;;;10.95;;
64851;SDS011;56050;55.558;-4.644;2023-04-28T00:51:25;19.23;;;8.50;;
64851;SDS011;56050;55.558;-4.644;2023-04-28T00:53:53;21.30;;;8.18;;
64851;SDS011;56050;55.558;-4.644;2023-04-28T00:56:18;20.55;;;9.98;;
64851;SDS011;56050;55.558;-4.644;2023-04-28T00:58:44;22.48;;;8.80;;
64851;SDS011;56050;55.558;-4.644;2023-04-28T01:01:10;19.67;;;8.60;;
64851;SDS011;56050;55.558;-4.644;2023-04-28T01:03:36;22.02;;;9.20;;
64851;SDS011;56050;55.558;-4.644;2023-04-28T01:06:04;20.02;;;9.15;;
64851;SDS011;56050;55.558;-4.644;2023-04-28T01:08:30;19.65;;;8.23;;
64851;SDS011;56050;55.558;-4.644;2023-04-28T01:10:56;20.13;;;10.35;;
64851;SDS011;56050;55.558;-4.644;2023-04-28T01:13:21;19.98;;;7.88;;
64851;SDS011;56050;55.558;-4.644;2023-04-28T01:15:47;21.48;;;8.70;;
64851;SDS011;56050;55.558;-4.644;2023-04-28T01:18:13;20.88;;;8.82;;
64851;SDS011;56050;55.558;-4.644;2023-04-28T01:20:40;20.92;;;8.32;;
64851;SDS011;56050;55.558;-4.644;2023-04-28T01:23:10;20.30;;;8.15;;
64851;SDS011;56050;55.558;-4.644;2023-04-28T01:25:36;23.00;;;9.40;;
64851;SDS011;56050;55.558;-4.644;2023-04-28T01:28:02;26.17;;;9.65;;
64851;SDS011;56050;55.558;-4.644;2023-04-28T01:30:27;25.35;;;9.40;;
64851;SDS011;56050;55.558;-4.644;2023-04-28T01:32:53;22.55;;;9.30;;
64851;SDS011;56050;55.558;-4.644;2023-04-28T01:35:18;21.05;;;8.60;;
64851;SDS011;56050;55.558;-4.644;2023-04-28T01:37:44;22.55;;;9.50;;
64851;SDS011;56050;55.558;-4.644;2023-04-28T01:40:10;23.88;;;9.68;;
64851;SDS011;56050;55.558;-4.644;2023-04-28T01:42:35;19.67;;;8.57;;
64851;SDS011;56050;55.558;-4.644;2023-04-28T01:45:01;18.13;;;8.38;;
64851;SDS011;56050;55.558;-4.644;2023-04-28T01:47:27;25.80;;;9.88;;
64851;SDS011;56050;55.558;-4.644;2023-04-28T01:49:52;19.05;;;8.35;;
64851;SDS011;56050;55.558;-4.644;2023-04-28T01:52:18;23.55;;;9.98;;
64851;SDS011;56050;55.558;-4.644;2023-04-28T01:54:46;21.98;;;9.90;;
64851;SDS011;56050;55.558;-4.644;2023-04-28T01:57:12;22.60;;;9.27;;
64851;SDS011;56050;55.558;-4.644;2023-04-28T01:59:37;21.13;;;9.18;;
64851;SDS011;56050;55.558;-4.644;2023-04-28T02:02:02;23.80;;;9.27;;
64851;SDS011;56050;55.558;-4.644;2023-04-28T02:04:28;20.38;;;9.32;;
64851;SDS011;56050;55.558;-4.644;2023-04-28T02:06:53;21.70;;;9.00;;
64851;SDS011;56050;55.558;-4.644;2023-04-28T02:09:19;20.80;;;9.50;;
64851;SDS011;56050;55.558;-4.644;2023-04-28T02:11:44;20.70;;;9.77;;
64851;SDS011;56050;55.558;-4.644;2023-04-28T02:14:09;17.92;;;9.40;;
64851;SDS011;56050;55.558;-4.644;2023-04-28T02:16:35;25.67;;;12.10;;
64851;SDS011;56050;55.558;-4.644;2023-04-28T02:19:00;20.38;;;8.68;;
64851;SDS011;56050;55.558;-4.644;2023-04-28T02:21:26;24.40;;;9.85;;
64851;SDS011;56050;55.558;-4.644;2023-04-28T02:23:51;23.05;;;9.75;;
64851;SDS011;56050;55.558;-4.644;2023-04-28T02:26:17;23.52;;;9.50;;
64851;SDS011;56050;55.558;-4.644;2023-04-28T02:28:42;23.55;;;8.73;;
64851;SDS011;56050;55.558;-4.644;2023-04-28T02:31:08;19.98;;;8.27;;
64851;SDS011;56050;55.558;-4.644;2023-04-28T02:33:35;22.55;;;10.00;;
64851;SDS011;56050;55.558;-4.644;2023-04-28T02:36:02;20.20;;;9.52;;
64851;SDS011;56050;55.558;-4.644;2023-04-28T02:38:28;23.00;;;9.75;;
64851;SDS011;56050;55.558;-4.644;2023-04-28T02:41:00;22.60;;;9.95;;
64851;SDS011;56050;55.558;-4.644;2023-04-28T02:43:28;21.58;;;8.80;;
64851;SDS011;56050;55.558;-4.644;2023-04-28T02:45:55;21.48;;;9.10;;
64851;SDS011;56050;55.558;-4.644;2023-04-28T02:48:20;24.70;;;9.38;;
64851;SDS011;56050;55.558;-4.644;2023-04-28T02:50:46;20.23;;;8.50;;
64851;SDS011;56050;55.558;-4.644;2023-04-28T02:53:11;21.70;;;7.95;;
64851;SDS011;56050;55.558;-4.644;2023-04-28T02:55:37;23.45;;;9.50;;
64851;SDS011;56050;55.558;-4.644;2023-04-28T02:58:03;21.00;;;10.13;;
64851;SDS011;56050;55.558;-4.644;2023-04-28T03:00:28;21.73;;;9.25;;
64851;SDS011;56050;55.558;-4.644;2023-04-28T03:02:53;22.67;;;9.95;;
64851;SDS011;56050;55.558;-4.644;2023-04-28T03:05:19;20.25;;;8.20;;
64851;SDS011;56050;55.558;-4.644;2023-04-28T03:07:45;22.15;;;9.13;;
64851;SDS011;56050;55.558;-4.644;2023-04-28T03:10:10;21.52;;;9.32;;
64851;SDS011;56050;55.558;-4.644;2023-04-28T03:12:36;22.25;;;8.82;;
64851;SDS011;56050;55.558;-4.644;2023-04-28T03:15:01;24.27;;;9.35;;
64851;SDS011;56050;55.558;-4.644;2023-04-28T03:17:27;22.33;;;9.35;;
64851;SDS011;56050;55.558;-4.644;2023-04-28T03:19:52;24.77;;;9.30;;
64851;SDS011;56050;55.558;-4.644;2023-04-28T03:22:18;19.23;;;9.85;;
64851;SDS011;56050;55.558;-4.644;2023-04-28T03:24:43;21.52;;;8.48;;
64851;SDS011;56050;55.558;-4.644;2023-04-28T03:27:09;21.08;;;10.02;;
64851;SDS011;56050;55.558;-4.644;2023-04-28T03:29:34;23.60;;;9.25;;
64851;SDS011;56050;55.558;-4.644;2023-04-28T03:32:00;19.63;;;8.82;;
64851;SDS011;56050;55.558;-4.644;2023-04-28T03:34:26;22.88;;;8.75;;
64851;SDS011;56050;55.558;-4.644;2023-04-28T03:36:51;16.80;;;8.63;;
64851;SDS011;56050;55.558;-4.644;2023-04-28T03:39:17;24.27;;;10.40;;
64851;SDS011;56050;55.558;-4.644;2023-04-28T03:41:42;23.98;;;10.00;;
64851;SDS011;56050;55.558;-4.644;2023-04-28T03:44:08;23.45;;;9.43;;
64851;SDS011;56050;55.558;-4.644;2023-04-28T03:46:33;22.48;;;8.77;;
64851;SDS011;56050;55.558;-4.644;2023-04-28T03:48:59;19.58;;;9.07;;
64851;SDS011;56050;55.558;-4.644;2023-04-28T03:51:26;26.75;;;9.90;;
64851;SDS011;56050;55.558;-4.644;2023-04-28T03:53:53;20.17;;;9.02;;
64851;SDS011;56050;55.558;-4.644;2023-04-28T03:56:19;22.30;;;9.90;;
64851;SDS011;56050;55.558;-4.644;2023-04-28T03:58:44;21.60;;;9.50;;
64851;SDS011;56050;55.558;-4.644;2023-04-28T04:01:10;18.73;;;8.10;;
64851;SDS011;56050;55.558;-4.644;2023-04-28T04:03:35;22.35;;;9.52;;
64851;SDS011;56050;55.558;-4.644;2023-04-28T04:06:01;24.98;;;10.48;;
64851;SDS011;56050;55.558;-4.644;2023-04-28T04:08:26;21.48;;;8.98;;
64851;SDS011;56050;55.558;-4.644;2023-04-28T04:10:52;22.13;;;8.98;;
64851;SDS011;56050;55.558;-4.644;2023-04-28T04:13:18;21.30;;;9.40;;
64851;SDS011;56050;55.558;-4.644;2023-04-28T04:15:44;23.05;;;8.88;;
64851;SDS011;56050;55.558;-4.644;2023-04-28T04:18:10;23.05;;;9.02;;
64851;SDS011;56050;55.558;-4.644;2023-04-28T04:20:35;26.52;;;9.82;;
64851;SDS011;56050;55.558;-4.644;2023-04-28T04:23:01;20.67;;;9.13;;
64851;SDS011;56050;55.558;-4.644;2023-04-28T04:25:27;22.83;;;10.32;;
64851;SDS011;56050;55.558;-4.644;2023-04-28T04:27:53;20.33;;;9.55;;
64851;SDS011;56050;55.558;-4.644;2023-04-28T04:30:18;19.05;;;10.48;;
64851;SDS011;56050;55.558;-4.644;2023-04-28T04:32:44;24.92;;;9.73;;
64851;SDS011;56050;55.558;-4.644;2023-04-28T04:35:09;21.58;;;10.30;;
64851;SDS011;56050;55.558;-4.644;2023-04-28T04:37:35;24.25;;;9.50;;
64851;SDS011;56050;55.558;-4.644;2023-04-28T04:40:01;22.58;;;8.73;;
64851;SDS011;56050;55.558;-4.644;2023-04-28T04:42:27;22.05;;;9.98;;
64851;SDS011;56050;55.558;-4.644;2023-04-28T04:44:52;25.48;;;10.60;;
64851;SDS011;56050;55.558;-4.644;2023-04-28T04:47:18;18.77;;;10.13;;
64851;SDS011;56050;55.558;-4.644;2023-04-28T04:49:44;22.73;;;9.18;;
64851;SDS011;56050;55.558;-4.644;2023-04-28T04:52:09;21.67;;;8.05;;
64851;SDS011;56050;55.558;-4.644;2023-04-28T04:54:35;20.23;;;9.15;;
64851;SDS011;56050;55.558;-4.644;2023-04-28T04:57:00;21.13;;;8.25;;
64851;SDS011;56050;55.558;-4.644;2023-04-28T04:59:26;20.55;;;9.80;;
64851;SDS011;56050;55.558;-4.644;2023-04-28T05:01:52;21.08;;;8.90;;
64851;SDS011;56050;55.558;-4.644;2023-04-28T05:04:17;22.90;;;9.88;;
64851;SDS011;56050;55.558;-4.644;2023-04-28T05:06:43;18.75;;;8.27;;
64851;SDS011;56050;55.558;-4.644;2023-04-28T05:09:08;21.70;;;9.45;;
64851;SDS011;56050;55.558;-4.644;2023-04-28T05:11:34;25.52;;;11.23;;
64851;SDS011;56050;55.558;-4.644;2023-04-28T05:13:59;22.02;;;9.55;;
64851;SDS011;56050;55.558;-4.644;2023-04-28T05:16:25;22.90;;;10.05;;
64851;SDS011;56050;55.558;-4.644;2023-04-28T05:18:51;27.60;;;12.88;;
64851;SDS011;56050;55.558;-4.644;2023-04-28T05:21:17;28.48;;;12.38;;
64851;SDS011;56050;55.558;-4.644;2023-04-28T05:23:42;23.67;;;10.10;;
64851;SDS011;56050;55.558;-4.644;2023-04-28T05:26:08;22.35;;;10.25;;
64851;SDS011;56050;55.558;-4.644;2023-04-28T05:28:33;25.30;;;9.85;;
64851;SDS011;56050;55.558;-4.644;2023-04-28T05:30:59;22.27;;;9.50;;
64851;SDS011;56050;55.558;-4.644;2023-04-28T05:33:24;23.38;;;10.65;;
64851;SDS011;56050;55.558;-4.644;2023-04-28T05:35:50;23.65;;;10.90;;
64851;SDS011;56050;55.558;-4.644;2023-04-28T05:38:15;26.80;;;12.02;;
64851;SDS011;56050;55.558;-4.644;2023-04-28T05:40:41;25.63;;;10.98;;
64851;SDS011;56050;55.558;-4.644;2023-04-28T05:43:06;23.20;;;10.07;;
64851;SDS011;56050;55.558;-4.644;2023-04-28T05:45:32;29.80;;;11.45;;
64851;SDS011;56050;55.558;-4.644;2023-04-28T05:47:57;28.30;;;11.15;;
64851;SDS011;56050;55.558;-4.644;2023-04-28T05:50:22;25.25;;;11.05;;
64851;SDS011;56050;55.558;-4.644;2023-04-28T05:52:48;29.48;;;11.52;;
64851;SDS011;56050;55.558;-4.644;2023-04-28T05:55:13;26.90;;;11.15;;
64851;SDS011;56050;55.558;-4.644;2023-04-28T05:57:39;28.48;;;9.90;;
64851;SDS011;56050;55.558;-4.644;2023-04-28T06:00:04;25.42;;;10.82;;
64851;SDS011;56050;55.558;-4.644;2023-04-28T06:02:31;27.73;;;11.30;;
64851;SDS011;56050;55.558;-4.644;2023-04-28T06:04:56;25.80;;;11.07;;
64851;SDS011;56050;55.558;-4.644;2023-04-28T06:07:21;26.88;;;10.98;;
64851;SDS011;56050;55.558;-4.644;2023-04-28T06:09:47;24.75;;;10.27;;
64851;SDS011;56050;55.558;-4.644;2023-04-28T06:12:12;29.02;;;11.45;;
64851;SDS011;56050;55.558;-4.644;2023-04-28T06:14:38;27.05;;;11.57;;
64851;SDS011;56050;55.558;-4.644;2023-04-28T06:17:04;28.90;;;13.05;;
64851;SDS011;56050;55.558;-4.644;2023-04-28T06:19:30;29.17;;;13.02;;
64851;SDS011;56050;55.558;-4.644;2023-04-28T06:21:55;27.05;;;11.52;;
64851;SDS011;56050;55.558;-4.644;2023-04-28T06:24:21;29.67;;;11.52;;
64851;SDS011;56050;55.558;-4.644;2023-04-28T06:26:46;27.58;;;11.77;;
64851;SDS011;56050;55.558;-4.644;2023-04-28T06:29:12;24.58;;;11.30;;
64851;SDS011;56050;55.558;-4.644;2023-04-28T06:31:37;32.65;;;12.40;;
64851;SDS011;56050;55.558;-4.644;2023-04-28T06:34:03;32.70;;;13.05;;
64851;SDS011;56050;55.558;-4.644;2023-04-28T06:36:28;27.08;;;12.50;;
64851;SDS011;56050;55.558;-4.644;2023-04-28T06:38:54;29.13;;;12.32;;
64851;SDS011;56050;55.558;-4.644;2023-04-28T06:41:20;26.63;;;11.90;;
64851;SDS011;56050;55.558;-4.644;2023-04-28T06:43:45;29.13;;;13.20;;
64851;SDS011;56050;55.558;-4.644;2023-04-28T06:46:10;29.25;;;11.93;;
64851;SDS011;56050;55.558;-4.644;2023-04-28T06:48:36;34.00;;;13.18;;
64851;SDS011;56050;55.558;-4.644;2023-04-28T06:51:01;32.42;;;12.40;;
64851;SDS011;56050;55.558;-4.644;2023-04-28T06:53:27;28.98;;;12.27;;
64851;SDS011;56050;55.558;-4.644;2023-04-28T06:55:53;32.83;;;12.93;;
64851;SDS011;56050;55.558;-4.644;2023-04-28T06:58:19;34.40;;;12.52;;
64851;SDS011;56050;55.558;-4.644;2023-04-28T07:00:44;31.90;;;12.70;;
64851;SDS011;56050;55.558;-4.644;2023-04-28T07:03:10;32.45;;;12.90;;
64851;SDS011;56050;55.558;-4.644;2023-04-28T07:05:36;33.47;;;12.45;;
64851;SDS011;56050;55.558;-4.644;2023-04-28T07:08:01;35.08;;;12.68;;
64851;SDS011;56050;55.558;-4.644;2023-04-28T07:10:27;28.92;;;12.70;;
64851;SDS011;56050;55.558;-4.644;2023-04-28T07:12:53;27.55;;;11.88;;
64851;SDS011;56050;55.558;-4.644;2023-04-28T07:15:18;30.10;;;11.68;;
64851;SDS011;56050;55.558;-4.644;2023-04-28T07:17:44;29.10;;;12.60;;
64851;SDS011;56050;55.558;-4.644;2023-04-28T07:20:09;26.90;;;12.13;;
64851;SDS011;56050;55.558;-4.644;2023-04-28T07:22:35;35.05;;;13.07;;
64851;SDS011;56050;55.558;-4.644;2023-04-28T07:25:00;34.70;;;12.52;;
64851;SDS011;56050;55.558;-4.644;2023-04-28T07:27:26;31.05;;;12.25;;
64851;SDS011;56050;55.558;-4.644;2023-04-28T07:29:51;36.22;;;13.10;;
64851;SDS011;56050;55.558;-4.644;2023-04-28T07:32:17;29.23;;;11.68;;
64851;SDS011;56050;55.558;-4.644;2023-04-28T07:34:42;33.17;;;12.13;;
64851;SDS011;56050;55.558;-4.644;2023-04-28T07:37:08;31.73;;;14.07;;
64851;SDS011;56050;55.558;-4.644;2023-04-28T07:39:33;28.00;;;11.60;;
64851;SDS011;56050;55.558;-4.644;2023-04-28T07:41:59;30.90;;;11.88;;
64851;SDS011;56050;55.558;-4.644;2023-04-28T07:44:27;33.60;;;14.15;;
64851;SDS011;56050;55.558;-4.644;2023-04-28T07:46:53;26.40;;;11.52;;
64851;SDS011;56050;55.558;-4.644;2023-04-28T07:49:18;33.00;;;12.25;;
64851;SDS011;56050;55.558;-4.644;2023-04-28T07:51:44;28.85;;;12.35;;
64851;SDS011;56050;55.558;-4.644;2023-04-28T07:54:09;32.88;;;12.50;;
64851;SDS011;56050;55.558;-4.644;2023-04-28T07:56:36;31.83;;;12.30;;
64851;SDS011;56050;55.558;-4.644;2023-04-28T07:59:01;29.40;;;12.05;;
64851;SDS011;56050;55.558;-4.644;2023-04-28T08:01:27;31.60;;;12.82;;
64851;SDS011;56050;55.558;-4.644;2023-04-28T08:03:52;36.25;;;12.75;;
64851;SDS011;56050;55.558;-4.644;2023-04-28T08:06:18;31.95;;;12.45;;
64851;SDS011;56050;55.558;-4.644;2023-04-28T08:08:43;32.03;;;12.90;;
64851;SDS011;56050;55.558;-4.644;2023-04-28T08:11:09;36.45;;;12.57;;
64851;SDS011;56050;55.558;-4.644;2023-04-28T08:13:35;32.08;;;12.02;;
64851;SDS011;56050;55.558;-4.644;2023-04-28T08:16:00;30.98;;;11.05;;
64851;SDS011;56050;55.558;-4.644;2023-04-28T08:18:26;33.28;;;12.18;;
64851;SDS011;56050;55.558;-4.644;2023-04-28T08:20:52;31.92;;;13.60;;
64851;SDS011;56050;55.558;-4.644;2023-04-28T08:23:17;33.00;;;13.10;;
64851;SDS011;56050;55.558;-4.644;2023-04-28T08:25:44;32.05;;;12.38;;
64851;SDS011;56050;55.558;-4.644;2023-04-28T08:28:11;36.60;;;12.85;;
64851;SDS011;56050;55.558;-4.644;2023-04-28T08:30:36;32.28;;;13.48;;
64851;SDS011;56050;55.558;-4.644;2023-04-28T08:33:02;31.88;;;11.68;;
64851;SDS011;56050;55.558;-4.644;2023-04-28T08:35:28;34.40;;;12.50;;
64851;SDS011;56050;55.558;-4.644;2023-04-28T08:37:54;32.92;;;11.82;;
64851;SDS011;56050;55.558;-4.644;2023-04-28T08:40:19;27.55;;;11.65;;
64851;SDS011;56050;55.558;-4.644;2023-04-28T08:42:45;30.90;;;12.23;;
64851;SDS011;56050;55.558;-4.644;2023-04-28T08:45:12;30.55;;;12.05;;
64851;SDS011;56050;55.558;-4.644;2023-04-28T08:47:38;30.40;;;11.70;;
64851;SDS011;56050;55.558;-4.644;2023-04-28T08:50:09;30.33;;;14.35;;
64851;SDS011;56050;55.558;-4.644;2023-04-28T08:52:37;31.05;;;11.15;;
64851;SDS011;56050;55.558;-4.644;2023-04-28T08:55:09;25.10;;;10.93;;
64851;SDS011;56050;55.558;-4.644;2023-04-28T08:57:49;30.30;;;12.07;;
64851;SDS011;56050;55.558;-4.644;2023-04-28T09:00:18;35.53;;;12.15;;
64851;SDS011;56050;55.558;-4.644;2023-04-28T09:02:44;27.42;;;11.52;;
64851;SDS011;56050;55.558;-4.644;2023-04-28T09:05:10;34.47;;;11.43;;
64851;SDS011;56050;55.558;-4.644;2023-04-28T09:07:36;31.27;;;13.07;;
64851;SDS011;56050;55.558;-4.644;2023-04-28T09:10:21;29.35;;;12.43;;
64851;SDS011;56050;55.558;-4.644;2023-04-28T09:12:50;30.38;;;10.88;;
64851;SDS011;56050;55.558;-4.644;2023-04-28T09:15:35;33.55;;;13.15;;
64851;SDS011;56050;55.558;-4.644;2023-04-28T09:18:02;32.75;;;12.93;;
64851;SDS011;56050;55.558;-4.644;2023-04-28T09:20:30;31.25;;;13.55;;
64851;SDS011;56050;55.558;-4.644;2023-04-28T09:23:12;32.00;;;11.85;;
64851;SDS011;56050;55.558;-4.644;2023-04-28T09:26:00;34.00;;;12.93;;
64851;SDS011;56050;55.558;-4.644;2023-04-28T09:28:27;32.28;;;14.10;;
64851;SDS011;56050;55.558;-4.644;2023-04-28T09:30:53;33.30;;;15.35;;
64851;SDS011;56050;55.558;-4.644;2023-04-28T09:33:19;28.40;;;11.13;;
64851;SDS011;56050;55.558;-4.644;2023-04-28T09:35:45;35.15;;;13.15;;
64851;SDS011;56050;55.558;-4.644;2023-04-28T09:38:12;30.40;;;11.65;;
64851;SDS011;56050;55.558;-4.644;2023-04-28T09:40:57;33.70;;;13.15;;
64851;SDS011;56050;55.558;-4.644;2023-04-28T09:43:31;29.13;;;11.15;;
64851;SDS011;56050;55.558;-4.644;2023-04-28T09:45:58;33.80;;;11.90;;
64851;SDS011;56050;55.558;-4.644;2023-04-28T09:48:28;28.50;;;11.20;;
64851;SDS011;56050;55.558;-4.644;2023-04-28T09:51:01;25.63;;;11.77;;
64851;SDS011;56050;55.558;-4.644;2023-04-28T09:53:29;29.40;;;11.40;;
64851;SDS011;56050;55.558;-4.644;2023-04-28T09:55:55;28.55;;;10.57;;
64851;SDS011;56050;55.558;-4.644;2023-04-28T09:58:22;28.60;;;10.32;;
64851;SDS011;56050;55.558;-4.644;2023-04-28T10:00:50;28.30;;;11.90;;
64851;SDS011;56050;55.558;-4.644;2023-04-28T10:03:18;29.63;;;10.82;;
64851;SDS011;56050;55.558;-4.644;2023-04-28T10:05:46;29.42;;;11.15;;
64851;SDS011;56050;55.558;-4.644;2023-04-28T10:08:12;27.60;;;11.48;;
64851;SDS011;56050;55.558;-4.644;2023-04-28T10:10:38;27.25;;;11.20;;
64851;SDS011;56050;55.558;-4.644;2023-04-28T10:13:06;26.60;;;11.25;;
64851;SDS011;56050;55.558;-4.644;2023-04-28T10:15:32;25.23;;;10.70;;
64851;SDS011;56050;55.558;-4.644;2023-04-28T10:17:58;23.35;;;10.52;;
64851;SDS011;56050;55.558;-4.644;2023-04-28T10:20:24;25.48;;;11.38;;
64851;SDS011;56050;55.558;-4.644;2023-04-28T10:25:40;24.58;;;9.82;;
64851;SDS011;56050;55.558;-4.644;2023-04-28T10:28:07;25.35;;;10.13;;
64851;SDS011;56050;55.558;-4.644;2023-04-28T10:30:33;26.52;;;10.60;;
64851;SDS011;56050;55.558;-4.644;2023-04-28T10:38:08;26.30;;;11.93;;
64851;SDS011;56050;55.558;-4.644;2023-04-28T10:40:35;25.27;;;12.27;;
64851;SDS011;56050;55.558;-4.644;2023-04-28T10:43:09;28.58;;;10.32;;
64851;SDS011;56050;55.558;-4.644;2023-04-28T10:48:13;25.70;;;10.57;;
64851;SDS011;56050;55.558;-4.644;2023-04-28T10:56:22;26.65;;;10.65;;
64851;SDS011;56050;55.558;-4.644;2023-04-28T10:58:50;26.67;;;12.10;;
64851;SDS011;56050;55.558;-4.644;2023-04-28T11:17:03;27.52;;;11.32;;
64851;SDS011;56050;55.558;-4.644;2023-04-28T11:19:31;33.25;;;12.48;;
64851;SDS011;56050;55.558;-4.644;2023-04-28T11:21:58;29.65;;;12.10;;
64851;SDS011;56050;55.558;-4.644;2023-04-28T11:24:28;30.60;;;13.07;;
64851;SDS011;56050;55.558;-4.644;2023-04-28T11:26:58;31.05;;;12.63;;
64851;SDS011;56050;55.558;-4.644;2023-04-28T11:32:11;29.83;;;11.93;;
64851;SDS011;56050;55.558;-4.644;2023-04-28T11:34:37;28.73;;;12.60;;
64851;SDS011;56050;55.558;-4.644;2023-04-28T11:37:02;31.73;;;13.38;;
64851;SDS011;56050;55.558;-4.644;2023-04-28T11:39:30;34.72;;;13.18;;
64851;SDS011;56050;55.558;-4.644;2023-04-28T11:42:00;33.63;;;12.52;;
64851;SDS011;56050;55.558;-4.644;2023-04-28T11:44:33;31.30;;;13.23;;
64851;SDS011;56050;55.558;-4.644;2023-04-28T11:46:59;28.70;;;13.10;;
64851;SDS011;56050;55.558;-4.644;2023-04-28T11:49:26;28.15;;;11.02;;
64851;SDS011;56050;55.558;-4.644;2023-04-28T11:52:11;31.13;;;13.02;;
64851;SDS011;56050;55.558;-4.644;2023-04-28T11:54:37;30.00;;;12.30;;
64851;SDS011;56050;55.558;-4.644;2023-04-28T11:57:03;26.00;;;10.52;;
64851;SDS011;56050;55.558;-4.644;2023-04-28T11:59:33;33.05;;;12.05;;
64851;SDS011;56050;55.558;-4.644;2023-04-28T12:02:02;25.05;;;10.73;;
64851;SDS011;56050;55.558;-4.644;2023-04-28T12:04:34;29.77;;;10.75;;
64851;SDS011;56050;55.558;-4.644;2023-04-28T12:07:04;25.55;;;13.43;;
64851;SDS011;56050;55.558;-4.644;2023-04-28T12:09:30;31.38;;;10.77;;
64851;SDS011;56050;55.558;-4.644;2023-04-28T12:11:57;23.90;;;9.85;;
64851;SDS011;56050;55.558;-4.644;2023-04-28T12:14:26;28.77;;;10.68;;
64851;SDS011;56050;55.558;-4.644;2023-04-28T12:16:51;28.30;;;10.73;;
64851;SDS011;56050;55.558;-4.644;2023-04-28T12:19:17;28.90;;;12.98;;
64851;SDS011;56050;55.558;-4.644;2023-04-28T12:21:57;26.83;;;12.18;;
64851;SDS011;56050;55.558;-4.644;2023-04-28T12:24:24;26.88;;;10.90;;
64851;SDS011;56050;55.558;-4.644;2023-04-28T12:26:51;27.85;;;10.68;;
64851;SDS011;56050;55.558;-4.644;2023-04-28T12:32:04;24.90;;;10.30;;
64851;SDS011;56050;55.558;-4.644;2023-04-28T12:34:31;25.17;;;10.30;;
64851;SDS011;56050;55.558;-4.644;2023-04-28T12:36:58;25.77;;;10.50;;
64851;SDS011;56050;55.558;-4.644;2023-04-28T12:39:24;22.00;;;10.27;;
64851;SDS011;56050;55.558;-4.644;2023-04-28T12:41:51;27.50;;;10.88;;
64851;SDS011;56050;55.558;-4.644;2023-04-28T12:44:17;26.27;;;11.02;;
64851;SDS011;56050;55.558;-4.644;2023-04-28T12:46:42;23.15;;;10.60;;
64851;SDS011;56050;55.558;-4.644;2023-04-28T12:49:08;23.67;;;9.07;;
64851;SDS011;56050;55.558;-4.644;2023-04-28T12:51:33;21.30;;;9.13;;
64851;SDS011;56050;55.558;-4.644;2023-04-28T12:53:59;22.42;;;8.77;;
64851;SDS011;56050;55.558;-4.644;2023-04-28T12:56:25;22.92;;;10.32;;
64851;SDS011;56050;55.558;-4.644;2023-04-28T12:58:51;22.73;;;9.27;;
64851;SDS011;56050;55.558;-4.644;2023-04-28T13:01:17;25.55;;;9.73;;
64851;SDS011;56050;55.558;-4.644;2023-04-28T13:03:42;21.33;;;8.20;;
64851;SDS011;56050;55.558;-4.644;2023-04-28T13:06:08;20.27;;;7.60;;
64851;SDS011;56050;55.558;-4.644;2023-04-28T13:08:35;20.75;;;9.55;;
64851;SDS011;56050;55.558;-4.644;2023-04-28T13:11:01;19.90;;;9.82;;
64851;SDS011;56050;55.558;-4.644;2023-04-28T13:13:29;24.35;;;9.93;;
64851;SDS011;56050;55.558;-4.644;2023-04-28T13:15:54;23.23;;;9.30;;
64851;SDS011;56050;55.558;-4.644;2023-04-28T13:18:20;25.40;;;9.18;;
64851;SDS011;56050;55.558;-4.644;2023-04-28T13:20:47;26.13;;;11.60;;
64851;SDS011;56050;55.558;-4.644;2023-04-28T13:23:12;23.88;;;8.68;;
64851;SDS011;56050;55.558;-4.644;2023-04-28T13:25:38;21.70;;;8.68;;
64851;SDS011;56050;55.558;-4.644;2023-04-28T13:28:04;24.25;;;9.70;;
64851;SDS011;56050;55.558;-4.644;2023-04-28T13:30:29;21.17;;;9.40;;
64851;SDS011;56050;55.558;-4.644;2023-04-28T13:32:55;25.55;;;9.63;;
64851;SDS011;56050;55.558;-4.644;2023-04-28T13:35:21;26.48;;;9.75;;
64851;SDS011;56050;55.558;-4.644;2023-04-28T13:37:48;24.17;;;9.20;;
64851;SDS011;56050;55.558;-4.644;2023-04-28T13:40:13;24.17;;;10.20;;
64851;SDS011;56050;55.558;-4.644;2023-04-28T13:42:39;23.45;;;10.30;;
64851;SDS011;56050;55.558;-4.644;2023-04-28T13:45:04;27.50;;;11.07;;
64851;SDS011;56050;55.558;-4.644;2023-04-28T13:47:30;25.65;;;11.70;;
64851;SDS011;56050;55.558;-4.644;2023-04-28T13:49:56;27.98;;;12.32;;
64851;SDS011;56050;55.558;-4.644;2023-04-28T13:52:24;27.85;;;11.77;;
64851;SDS011;56050;55.558;-4.644;2023-04-28T13:54:49;24.92;;;10.60;;
64851;SDS011;56050;55.558;-4.644;2023-04-28T13:57:15;29.88;;;12.10;;
64851;SDS011;56050;55.558;-4.644;2023-04-28T13:59:40;28.13;;;11.00;;
64851;SDS011;56050;55.558;-4.644;2023-04-28T14:02:06;25.15;;;10.43;;
64851;SDS011;56050;55.558;-4.644;2023-04-28T14:04:33;25.52;;;10.82;;
64851;SDS011;56050;55.558;-4.644;2023-04-28T14:06:58;30.02;;;11.43;;
64851;SDS011;56050;55.558;-4.644;2023-04-28T14:09:24;29.40;;;15.10;;
64851;SDS011;56050;55.558;-4.644;2023-04-28T14:11:49;31.10;;;12.50;;
64851;SDS011;56050;55.558;-4.644;2023-04-28T14:14:15;29.70;;;13.55;;
64851;SDS011;56050;55.558;-4.644;2023-04-28T14:16:40;31.13;;;12.77;;
64851;SDS011;56050;55.558;-4.644;2023-04-28T14:19:06;33.20;;;14.32;;
64851;SDS011;56050;55.558;-4.644;2023-04-28T14:21:32;30.52;;;12.30;;
64851;SDS011;56050;55.558;-4.644;2023-04-28T14:23:58;35.25;;;14.45;;
64851;SDS011;56050;55.558;-4.644;2023-04-28T14:26:23;33.03;;;13.23;;
64851;SDS011;56050;55.558;-4.644;2023-04-28T14:28:49;31.63;;;12.68;;
64851;SDS011;56050;55.558;-4.644;2023-04-28T14:31:14;30.83;;;12.25;;
64851;SDS011;56050;55.558;-4.644;2023-04-28T14:33:40;29.75;;;11.80;;
64851;SDS011;56050;55.558;-4.644;2023-04-28T14:36:05;33.15;;;12.65;;
64851;SDS011;56050;55.558;-4.644;2023-04-28T14:38:31;28.05;;;13.50;;
64851;SDS011;56050;55.558;-4.644;2023-04-28T14:40:56;36.15;;;12.57;;
64851;SDS011;56050;55.558;-4.644;2023-04-28T14:43:22;32.28;;;14.25;;
64851;SDS011;56050;55.558;-4.644;2023-04-28T14:45:47;30.52;;;12.30;;